Airfield :
LOGIN :

Register | Disclaimer

   EN    FR    IT 

 










Legend :    VFR   Marginal VFR   IFR   Intensive IFR   Very Intensive IFR
Visi :
Ceiling :
>= 8 km
>= 3000ft
5 to 8 km
1000 to 3000 ft
1500m to 5 km
500 to 1000 ft
800 to 1500m
200 to 500 ft
< 800m
< 200 ft
Symbols :   Thunderstorms  Fog  Heavy snow  Heavy precipitations  Wind > 20 kt
SIGMETs :     Misc.  Thunderstorms  Icing  Turbulence  Mountain Waves  Volcanic Ashes






- Airport Elevation : 699 ft
- IATA code : PAD


EDLP - Paderborn Lippstadt

CURRENT METAR :
  • 250850Z 10008KT 060V150 CAVOK 24/12 Q1017

EXPIRED METARs :
  • 250820Z 08009KT CAVOK 23/12 Q1017
  • 250750Z 09008KT CAVOK 23/13 Q1017
  • 250720Z 08007KT CAVOK 22/13 Q1017
  • 250650Z 10006KT CAVOK 21/13 Q1017
  • 250620Z 11004KT CAVOK 20/12 Q1017
  • 250550Z 10005KT CAVOK 20/13 Q1017
  • 250520Z 10004KT CAVOK 18/12 Q1017
  • 250450Z 11005KT CAVOK 18/13 Q1017
  • 250420Z 12004KT 9999 R06/M0050N NSC 17/12 Q1017

TAF TAF EDLP
Valid from the 25 at 06:00 until the 26 at 06:00 UTC


250500Z 2506/2606 14004KT CAVOK
BECMG 2507/2510 08007KT
BECMG 2518/2521 14004KT



MET'MAP, your aeronautical weather chart ! - Copyright ORBIFLY December 2007 - Disclaimer

ORBIFLY MET'MAP TEAM :

Programming & Development : Alexandra Zaïnal
Original concept : Baudouin d'Aumeries
Technical & hardware support : Manuel Goepfert
Assistance : Marc-Olivier Méhu




SOURCES & CREDITS :

   NOAA